createdAt,value
2018-05-11T00:01:59.173Z,10.07
2018-05-11T00:04:25.901Z,9.70
2018-05-11T00:06:52.617Z,9.23
2018-05-11T00:09:19.356Z,15.33
2018-05-11T00:11:46.073Z,10.80
2018-05-11T00:14:12.838Z,9.23
2018-05-11T00:16:39.562Z,10.03
2018-05-11T00:19:06.315Z,8.20
2018-05-11T00:21:33.048Z,10.97
2018-05-11T00:23:59.796Z,14.77
2018-05-11T00:26:26.586Z,8.80
2018-05-11T00:28:53.385Z,8.50
2018-05-11T00:31:20.124Z,8.13
2018-05-11T00:33:46.872Z,8.80
2018-05-11T00:36:13.609Z,8.83
2018-05-11T00:38:40.378Z,9.17
2018-05-11T00:41:07.151Z,9.50
2018-05-11T00:43:33.877Z,11.60
2018-05-11T00:46:00.600Z,9.53
2018-05-11T00:48:27.352Z,8.97
2018-05-11T00:50:54.088Z,8.60
2018-05-11T00:53:20.824Z,7.90
2018-05-11T00:55:50.213Z,8.20
2018-05-11T00:58:16.965Z,8.03
2018-05-11T01:00:43.809Z,8.67
2018-05-11T01:03:10.518Z,8.03
2018-05-11T01:05:37.263Z,8.67
2018-05-11T01:08:04.011Z,7.67
2018-05-11T01:10:30.745Z,8.07
2018-05-11T01:12:57.482Z,6.40
2018-05-11T01:15:24.225Z,7.43
2018-05-11T01:17:50.970Z,6.00
2018-05-11T01:20:17.710Z,7.53
2018-05-11T01:22:44.503Z,7.17
2018-05-11T01:25:11.266Z,6.97
2018-05-11T01:27:37.998Z,6.60
2018-05-11T01:30:04.740Z,6.80
2018-05-11T01:32:31.456Z,6.70
2018-05-11T01:34:58.177Z,7.07
2018-05-11T01:37:24.919Z,8.87
2018-05-11T01:39:51.691Z,6.63
2018-05-11T01:42:18.402Z,7.50
2018-05-11T01:44:45.117Z,7.80
2018-05-11T01:47:11.845Z,7.50
2018-05-11T01:49:38.581Z,7.13
2018-05-11T01:52:05.305Z,8.20
2018-05-11T01:54:32.048Z,7.47
2018-05-11T01:56:58.792Z,6.90
2018-05-11T01:59:25.536Z,7.40
2018-05-11T02:01:52.258Z,7.50
2018-05-11T02:04:18.986Z,7.43
2018-05-11T02:06:45.729Z,8.00
2018-05-11T02:09:12.441Z,6.83
2018-05-11T02:11:39.203Z,7.67
2018-05-11T02:14:06.008Z,7.53
2018-05-11T02:16:32.720Z,7.87
2018-05-11T02:18:59.474Z,8.00
2018-05-11T02:21:26.202Z,7.03
2018-05-11T02:23:52.952Z,7.27
2018-05-11T02:26:19.676Z,7.40
2018-05-11T02:28:46.412Z,7.93
2018-05-11T02:31:13.153Z,7.43
2018-05-11T02:33:39.880Z,7.33
2018-05-11T02:36:06.611Z,7.80
2018-05-11T02:38:33.342Z,8.20
2018-05-11T02:41:00.059Z,9.40
2018-05-11T02:43:26.794Z,7.83
2018-05-11T02:45:53.528Z,12.53
2018-05-11T02:48:20.274Z,10.50
2018-05-11T02:50:47.007Z,9.13
2018-05-11T02:53:13.730Z,10.77
2018-05-11T02:55:40.476Z,8.57
2018-05-11T02:58:07.197Z,8.00
2018-05-11T03:00:33.945Z,8.63
2018-05-11T03:03:00.682Z,8.90
2018-05-11T03:05:27.409Z,8.03
2018-05-11T03:07:54.130Z,7.70
2018-05-11T03:10:20.894Z,9.37
2018-05-11T03:12:47.612Z,8.93
2018-05-11T03:15:14.330Z,9.17
2018-05-11T03:17:41.070Z,9.80
2018-05-11T03:20:07.807Z,9.60
2018-05-11T03:22:34.530Z,8.50
2018-05-11T03:25:01.262Z,9.03
2018-05-11T03:27:28.000Z,8.53
2018-05-11T03:29:54.730Z,8.50
2018-05-11T03:32:21.440Z,8.30
2018-05-11T03:34:48.190Z,8.37
2018-05-11T03:37:14.924Z,9.73
2018-05-11T03:39:41.645Z,7.60
2018-05-11T03:42:08.386Z,12.17
2018-05-11T03:44:35.105Z,8.57
2018-05-11T03:47:01.833Z,7.97
2018-05-11T03:49:28.565Z,7.90
2018-05-11T03:51:55.300Z,8.13
2018-05-11T03:54:22.045Z,7.80
2018-05-11T03:56:48.766Z,8.27
2018-05-11T03:59:15.474Z,7.83
2018-05-11T04:01:48.076Z,9.10
2018-05-11T04:04:32.523Z,8.00
2018-05-11T04:07:05.113Z,8.63
2018-05-11T04:09:31.845Z,8.87
2018-05-11T04:11:58.557Z,8.30
2018-05-11T04:14:25.299Z,8.70
2018-05-11T04:16:52.038Z,9.37
2018-05-11T04:19:18.773Z,9.30
2018-05-11T04:21:45.512Z,8.67
2018-05-11T04:24:12.262Z,9.40
2018-05-11T04:26:38.973Z,8.53
2018-05-11T04:29:05.699Z,8.70
2018-05-11T04:31:32.435Z,8.70
2018-05-11T04:33:59.151Z,8.87
2018-05-11T04:36:25.866Z,9.50
2018-05-11T04:38:52.601Z,9.40
2018-05-11T04:41:19.362Z,8.23
2018-05-11T04:43:46.086Z,8.23
2018-05-11T04:46:12.799Z,8.77
2018-05-11T04:48:39.532Z,7.70
2018-05-11T04:51:06.274Z,7.00
2018-05-11T04:53:33.009Z,8.20
2018-05-11T04:55:59.764Z,8.03
2018-05-11T04:58:26.492Z,7.47
2018-05-11T05:00:53.226Z,8.30
2018-05-11T05:03:19.945Z,9.63
2018-05-11T05:05:46.662Z,8.67
2018-05-11T05:08:13.408Z,8.67
2018-05-11T05:10:40.136Z,7.83
2018-05-11T05:13:06.858Z,9.53
2018-05-11T05:15:33.573Z,9.80
2018-05-11T05:18:00.285Z,9.10
2018-05-11T05:20:26.997Z,7.67
2018-05-11T05:22:53.792Z,7.90
2018-05-11T05:25:20.513Z,7.93
2018-05-11T05:27:47.255Z,7.90
2018-05-11T05:30:13.962Z,8.70
2018-05-11T05:32:40.693Z,9.37
2018-05-11T05:35:07.404Z,9.20
2018-05-11T05:37:34.128Z,9.20
2018-05-11T05:40:00.857Z,9.70
2018-05-11T05:42:27.610Z,9.10
2018-05-11T05:44:54.321Z,9.43
2018-05-11T05:47:21.072Z,9.70
2018-05-11T05:49:47.824Z,10.13
2018-05-11T05:52:14.558Z,9.33
2018-05-11T05:54:41.294Z,10.40
2018-05-11T05:57:08.045Z,10.73
2018-05-11T05:59:34.770Z,11.30
2018-05-11T06:02:01.537Z,11.20
2018-05-11T06:04:28.290Z,11.13
2018-05-11T06:06:55.053Z,10.40
2018-05-11T06:09:21.881Z,11.40
2018-05-11T06:11:48.681Z,11.47
2018-05-11T06:14:15.423Z,12.10
2018-05-11T06:16:42.179Z,11.43
2018-05-11T06:19:08.905Z,12.20
2018-05-11T06:21:35.633Z,11.37
2018-05-11T06:24:02.369Z,11.00
2018-05-11T06:26:29.111Z,11.43
2018-05-11T06:28:55.845Z,10.93
2018-05-11T06:31:22.619Z,10.30
2018-05-11T06:33:49.344Z,10.27
2018-05-11T06:36:16.066Z,11.20
2018-05-11T06:38:42.799Z,10.03
2018-05-11T06:41:09.627Z,15.40
2018-05-11T06:43:36.381Z,9.40
2018-05-11T06:46:03.129Z,8.67
2018-05-11T06:48:30.193Z,9.50
2018-05-11T06:50:56.937Z,8.83
2018-05-11T06:53:23.667Z,7.43
2018-05-11T06:55:50.537Z,9.03
2018-05-11T06:58:17.224Z,7.40
2018-05-11T07:00:44.007Z,8.60
2018-05-11T07:03:10.732Z,7.50
2018-05-11T07:05:37.454Z,8.67
2018-05-11T07:08:04.302Z,8.90
2018-05-11T07:10:31.564Z,8.20
2018-05-11T07:12:58.349Z,8.53
2018-05-11T07:15:25.092Z,7.40
2018-05-11T07:17:52.071Z,7.20
2018-05-11T07:20:18.809Z,7.53
2018-05-11T07:22:45.568Z,7.13
2018-05-11T07:25:12.364Z,10.43
2018-05-11T07:27:39.077Z,7.00
2018-05-11T07:30:05.836Z,8.37
2018-05-11T07:32:32.603Z,7.93
2018-05-11T07:34:59.390Z,6.97
2018-05-11T07:37:26.141Z,6.70
2018-05-11T07:39:53.016Z,7.63
2018-05-11T07:42:19.785Z,8.10
2018-05-11T07:44:46.525Z,8.63
2018-05-11T07:47:13.257Z,7.07
2018-05-11T07:49:40.017Z,6.20
2018-05-11T07:52:06.762Z,6.43
2018-05-11T07:54:33.521Z,7.10
2018-05-11T07:57:00.327Z,6.87
2018-05-11T07:59:27.086Z,6.27
2018-05-11T08:01:53.844Z,6.10
2018-05-11T08:04:20.583Z,6.40
2018-05-11T08:06:47.341Z,6.40
2018-05-11T08:09:14.074Z,6.47
2018-05-11T08:11:40.832Z,5.80
2018-05-11T08:14:07.618Z,6.83
2018-05-11T08:16:34.344Z,6.30
2018-05-11T08:19:01.064Z,6.20
2018-05-11T08:21:27.897Z,6.93
2018-05-11T08:23:54.562Z,6.53
2018-05-11T08:26:21.310Z,5.90
2018-05-11T08:28:48.041Z,7.87
2018-05-11T08:31:14.817Z,7.00
2018-05-11T08:33:41.548Z,7.73
2018-05-11T08:36:08.283Z,6.60
2018-05-11T08:38:35.009Z,6.10
2018-05-11T08:41:01.734Z,6.80
2018-05-11T08:43:28.463Z,5.97
2018-05-11T08:45:55.175Z,6.63
2018-05-11T08:48:21.899Z,12.13
2018-05-11T08:50:48.624Z,8.80
2018-05-11T08:53:15.352Z,6.63
2018-05-11T08:55:42.098Z,6.33
2018-05-11T08:58:08.863Z,7.70
2018-05-11T09:00:35.611Z,7.80
2018-05-11T09:03:02.432Z,8.10
2018-05-11T09:05:29.095Z,6.70
2018-05-11T09:07:55.816Z,8.27
2018-05-11T09:10:22.592Z,9.07
2018-05-11T09:12:49.389Z,8.53
2018-05-11T09:15:16.131Z,7.47
2018-05-11T09:17:42.870Z,10.20
2018-05-11T09:20:09.605Z,8.20
2018-05-11T09:22:36.339Z,7.43
2018-05-11T09:25:03.097Z,11.97
2018-05-11T09:27:29.866Z,15.37
2018-05-11T09:29:56.611Z,8.80
2018-05-11T09:32:23.346Z,6.93
2018-05-11T09:34:50.094Z,8.40
2018-05-11T09:37:16.827Z,7.80
2018-05-11T09:39:43.741Z,8.10
2018-05-11T09:42:10.317Z,8.50
2018-05-11T09:44:37.156Z,7.33
2018-05-11T09:47:03.817Z,7.00
2018-05-11T09:49:30.559Z,7.80
2018-05-11T09:51:57.287Z,8.23
2018-05-11T09:54:24.002Z,8.70
2018-05-11T09:56:50.743Z,21.73
2018-05-11T09:59:17.528Z,10.10
2018-05-11T10:01:44.331Z,8.20
2018-05-11T10:04:11.006Z,12.80
2018-05-11T10:06:37.852Z,10.07
2018-05-11T10:09:04.595Z,12.47
2018-05-11T10:11:31.365Z,8.47
2018-05-11T10:13:58.156Z,7.83
2018-05-11T10:16:24.840Z,22.60
2018-05-11T10:18:51.628Z,10.57
2018-05-11T10:21:18.359Z,7.87
2018-05-11T10:23:45.114Z,11.37
2018-05-11T10:26:11.866Z,13.67
2018-05-11T10:28:38.706Z,27.00
2018-05-11T10:31:05.496Z,12.67
2018-05-11T10:33:32.242Z,13.63
2018-05-11T10:35:58.974Z,7.80
2018-05-11T10:38:25.703Z,7.20
2018-05-11T10:40:52.424Z,12.17
2018-05-11T10:43:19.181Z,7.40
2018-05-11T10:45:45.921Z,8.77
2018-05-11T10:48:12.656Z,7.17
2018-05-11T10:50:39.405Z,8.47
2018-05-11T10:53:06.129Z,6.33
2018-05-11T10:55:32.862Z,11.33
2018-05-11T10:57:59.578Z,8.83
2018-05-11T11:00:26.305Z,6.53
2018-05-11T11:02:53.060Z,7.70
2018-05-11T11:05:19.792Z,6.50
2018-05-11T11:07:46.579Z,6.40
2018-05-11T11:10:13.303Z,6.93
2018-05-11T11:12:40.042Z,5.97
2018-05-11T11:15:06.906Z,6.63
2018-05-11T11:17:33.674Z,8.03
2018-05-11T11:20:00.500Z,9.97
2018-05-11T11:22:27.172Z,6.87
2018-05-11T11:24:54.100Z,6.40
2018-05-11T11:27:21.226Z,9.37
2018-05-11T11:29:47.964Z,6.20
2018-05-11T11:32:14.704Z,6.10
2018-05-11T11:34:41.564Z,7.90
2018-05-11T11:37:08.185Z,5.77
2018-05-11T11:39:34.910Z,5.73
2018-05-11T11:42:01.748Z,6.23
2018-05-11T11:44:28.512Z,6.00
2018-05-11T11:46:55.277Z,6.37
2018-05-11T11:49:22.003Z,5.67
2018-05-11T11:51:48.731Z,5.83
2018-05-11T11:54:15.468Z,5.60
2018-05-11T11:56:42.183Z,5.93
2018-05-11T11:59:08.899Z,6.60
2018-05-11T12:01:35.651Z,7.57
2018-05-11T12:04:02.387Z,6.40
2018-05-11T12:06:29.139Z,8.47
2018-05-11T12:08:55.909Z,6.97
2018-05-11T12:11:22.606Z,5.70
2018-05-11T12:13:49.429Z,7.03
2018-05-11T12:16:16.164Z,5.70
2018-05-11T12:18:42.928Z,8.07
2018-05-11T12:21:09.665Z,5.60
2018-05-11T12:23:36.391Z,6.63
2018-05-11T12:26:03.129Z,6.13
2018-05-11T12:28:29.869Z,6.27
2018-05-11T12:30:56.605Z,5.67
2018-05-11T12:33:23.346Z,5.57
2018-05-11T12:35:50.064Z,6.50
2018-05-11T12:38:16.794Z,5.60
2018-05-11T12:40:43.535Z,6.70
2018-05-11T12:43:10.272Z,6.63
2018-05-11T12:45:37.009Z,6.23
2018-05-11T12:48:03.748Z,8.70
2018-05-11T12:50:30.505Z,7.03
2018-05-11T12:52:57.331Z,6.67
2018-05-11T12:55:24.010Z,5.70
2018-05-11T12:57:50.772Z,6.07
2018-05-11T13:00:17.494Z,16.83
2018-05-11T13:02:44.303Z,7.83
2018-05-11T13:05:11.030Z,6.97
2018-05-11T13:07:37.743Z,7.73
2018-05-11T13:10:04.470Z,5.57
2018-05-11T13:12:31.186Z,5.47
2018-05-11T13:14:57.956Z,4.77
2018-05-11T13:17:24.682Z,5.40
2018-05-11T13:19:51.446Z,5.63
2018-05-11T13:22:19.259Z,5.80
2018-05-11T13:24:45.975Z,6.67
2018-05-11T13:27:12.732Z,6.30
2018-05-11T13:29:39.450Z,6.27
2018-05-11T13:32:06.216Z,5.40
2018-05-11T13:34:32.939Z,5.30
2018-05-11T13:36:59.662Z,5.97
2018-05-11T13:39:26.401Z,5.30
2018-05-11T13:41:53.121Z,5.50
2018-05-11T13:44:19.840Z,5.00
2018-05-11T13:46:46.583Z,6.10
2018-05-11T13:49:13.322Z,5.13
2018-05-11T13:51:40.071Z,5.90
2018-05-11T13:54:06.798Z,6.40
2018-05-11T13:56:33.580Z,5.07
2018-05-11T13:59:00.291Z,5.20
2018-05-11T14:01:27.032Z,4.73
2018-05-11T14:03:53.765Z,5.23
2018-05-11T14:06:20.508Z,5.93
2018-05-11T14:08:47.252Z,5.73
2018-05-11T14:11:13.967Z,5.40
2018-05-11T14:13:40.696Z,5.80
2018-05-11T14:16:07.430Z,6.10
2018-05-11T14:18:34.160Z,5.60
2018-05-11T14:21:00.946Z,10.13
2018-05-11T14:23:27.726Z,8.33
2018-05-11T14:25:54.457Z,6.07
2018-05-11T14:28:21.194Z,5.33
2018-05-11T14:30:47.925Z,12.63
2018-05-11T14:33:14.642Z,5.50
2018-05-11T14:35:41.373Z,6.73
2018-05-11T14:38:08.133Z,5.70
2018-05-11T14:40:34.883Z,6.13
2018-05-11T14:43:01.644Z,5.43
2018-05-11T14:45:28.364Z,5.13
2018-05-11T14:47:55.103Z,5.47
2018-05-11T14:50:21.878Z,5.20
2018-05-11T14:52:48.605Z,5.53
2018-05-11T14:55:15.360Z,5.03
2018-05-11T14:57:42.085Z,4.47
2018-05-11T15:00:08.857Z,4.90
2018-05-11T15:02:35.620Z,5.00
2018-05-11T15:05:02.349Z,5.13
2018-05-11T15:07:29.080Z,6.10
2018-05-11T15:09:55.848Z,5.23
2018-05-11T15:12:22.559Z,7.53
2018-05-11T15:14:49.305Z,9.00
2018-05-11T15:17:16.056Z,5.30
2018-05-11T15:19:42.783Z,4.40
2018-05-11T15:22:09.515Z,7.07
2018-05-11T15:24:36.248Z,8.77
2018-05-11T15:27:03.031Z,5.73
2018-05-11T15:29:29.774Z,6.13
2018-05-11T15:31:56.485Z,7.07
2018-05-11T15:34:23.221Z,6.73
2018-05-11T15:36:49.960Z,6.97
2018-05-11T15:39:16.709Z,8.90
2018-05-11T15:41:43.450Z,6.57
2018-05-11T15:44:10.622Z,7.13
2018-05-11T15:46:37.397Z,8.03
2018-05-11T15:49:04.137Z,6.57
2018-05-11T15:51:30.874Z,7.20
2018-05-11T15:53:57.603Z,6.23
2018-05-11T15:56:24.342Z,6.90
2018-05-11T15:58:51.079Z,7.17
2018-05-11T16:01:17.805Z,7.63
2018-05-11T16:03:44.551Z,7.60
2018-05-11T16:06:11.377Z,7.20
2018-05-11T16:08:38.140Z,9.47
2018-05-11T16:11:04.871Z,7.80
2018-05-11T16:13:31.595Z,7.57
2018-05-11T16:15:58.347Z,7.17
2018-05-11T16:18:25.078Z,9.47
2018-05-11T16:20:51.845Z,7.40
2018-05-11T16:23:18.614Z,6.83
2018-05-11T16:25:45.386Z,7.13
2018-05-11T16:28:12.126Z,14.00
2018-05-11T16:30:38.841Z,10.63
2018-05-11T16:33:05.560Z,9.07
2018-05-11T16:35:32.285Z,7.53
2018-05-11T16:37:59.025Z,7.80
2018-05-11T16:40:25.829Z,8.00
2018-05-11T16:42:52.594Z,7.80
2018-05-11T16:45:19.321Z,8.63
2018-05-11T16:47:46.081Z,8.90
2018-05-11T16:50:12.803Z,8.13
2018-05-11T16:52:39.568Z,8.30
2018-05-11T16:55:06.306Z,8.30
2018-05-11T16:57:33.069Z,8.20
2018-05-11T16:59:59.823Z,9.87
2018-05-11T17:02:26.546Z,8.07
2018-05-11T17:04:53.453Z,8.57
2018-05-11T17:07:20.193Z,7.87
2018-05-11T17:09:47.049Z,11.03
2018-05-11T17:12:13.840Z,9.33
2018-05-11T17:14:40.631Z,8.10
2018-05-11T17:17:07.418Z,8.57
2018-05-11T17:19:34.194Z,8.20
2018-05-11T17:22:00.990Z,8.73
2018-05-11T17:24:27.719Z,9.03
2018-05-11T17:26:54.453Z,8.97
2018-05-11T17:29:21.244Z,8.07
2018-05-11T17:31:48.006Z,9.53
2018-05-11T17:34:14.724Z,8.20
2018-05-11T17:36:41.459Z,9.10
2018-05-11T17:39:08.176Z,7.90
2018-05-11T17:41:35.002Z,9.90
2018-05-11T17:44:01.654Z,9.70
2018-05-11T17:46:28.408Z,8.60
2018-05-11T17:48:55.120Z,8.57
2018-05-11T17:51:21.840Z,9.53
2018-05-11T17:53:48.594Z,9.50
2018-05-11T17:56:15.389Z,8.70
2018-05-11T17:58:42.122Z,9.03
2018-05-11T18:01:08.874Z,8.17
2018-05-11T18:03:35.617Z,9.47
2018-05-11T18:06:02.422Z,13.37
2018-05-11T18:08:29.147Z,9.40
2018-05-11T18:10:55.873Z,8.43
2018-05-11T18:13:22.595Z,9.83
2018-05-11T18:15:49.353Z,11.33
2018-05-11T18:18:16.111Z,10.43
2018-05-11T18:20:42.833Z,10.80
2018-05-11T18:23:09.571Z,9.80
2018-05-11T18:25:36.292Z,10.83
2018-05-11T18:28:03.048Z,14.80
2018-05-11T18:30:29.783Z,10.17
2018-05-11T18:32:56.503Z,15.63
2018-05-11T18:35:23.222Z,10.63
2018-05-11T18:37:49.971Z,10.57
2018-05-11T18:40:16.730Z,10.33
2018-05-11T18:42:43.464Z,11.10
2018-05-11T18:45:10.201Z,11.00
2018-05-11T18:47:36.930Z,11.20
2018-05-11T18:50:03.685Z,10.20
2018-05-11T18:52:30.409Z,10.70
2018-05-11T18:54:57.133Z,10.63
2018-05-11T18:57:23.865Z,11.83
2018-05-11T18:59:50.591Z,11.60
2018-05-11T19:02:17.325Z,13.73
2018-05-11T19:04:44.054Z,11.17
2018-05-11T19:07:10.795Z,10.30
2018-05-11T19:09:37.550Z,10.93
2018-05-11T19:12:04.290Z,12.03
2018-05-11T19:14:31.048Z,11.47
2018-05-11T19:16:57.864Z,12.50
2018-05-11T19:19:25.457Z,11.87
2018-05-11T19:21:52.206Z,10.47
2018-05-11T19:24:18.960Z,11.13
2018-05-11T19:26:45.699Z,11.10
2018-05-11T19:29:12.445Z,11.43
2018-05-11T19:31:39.175Z,11.30
2018-05-11T19:34:05.941Z,10.87
2018-05-11T19:36:32.686Z,11.30
2018-05-11T19:38:59.515Z,10.63
2018-05-11T19:41:26.238Z,12.00
2018-05-11T19:43:52.980Z,10.60
2018-05-11T19:46:19.722Z,11.63
2018-05-11T19:48:46.465Z,12.10
2018-05-11T19:51:13.275Z,11.43
2018-05-11T19:53:40.039Z,11.30
2018-05-11T19:56:06.808Z,11.83
2018-05-11T19:58:33.588Z,11.40
2018-05-11T20:01:00.342Z,12.50
2018-05-11T20:03:27.081Z,12.07
2018-05-11T20:05:53.839Z,12.80
2018-05-11T20:08:20.591Z,14.47
2018-05-11T20:10:47.392Z,12.60
2018-05-11T20:13:14.756Z,13.43
2018-05-11T20:15:41.537Z,14.20
2018-05-11T20:18:08.464Z,12.97
2018-05-11T20:20:35.212Z,13.37
2018-05-11T20:23:02.477Z,12.43
2018-05-11T20:25:29.242Z,12.57
2018-05-11T20:27:56.024Z,12.73
2018-05-11T20:30:22.769Z,13.43
2018-05-11T20:32:49.557Z,13.13
2018-05-11T20:35:16.271Z,11.30
2018-05-11T20:37:43.008Z,12.23
2018-05-11T20:40:09.790Z,12.33
2018-05-11T20:42:36.531Z,11.17
2018-05-11T20:45:03.293Z,11.53
2018-05-11T20:47:30.053Z,11.67
2018-05-11T20:49:56.800Z,11.90
2018-05-11T20:52:23.569Z,11.57
2018-05-11T20:54:50.353Z,11.03
2018-05-11T20:57:17.108Z,12.40
2018-05-11T20:59:43.851Z,12.63
2018-05-11T21:02:10.573Z,13.27
2018-05-11T21:04:37.334Z,12.93
2018-05-11T21:07:04.067Z,13.97
2018-05-11T21:09:30.833Z,13.83
2018-05-11T21:11:57.582Z,13.63
2018-05-11T21:14:24.336Z,13.67
2018-05-11T21:16:51.096Z,12.53
2018-05-11T21:19:17.824Z,12.47
2018-05-11T21:21:44.552Z,13.17
2018-05-11T21:24:11.294Z,12.77
2018-05-11T21:26:38.030Z,13.40
2018-05-11T21:29:04.772Z,12.93
2018-05-11T21:31:31.495Z,12.07
2018-05-11T21:33:58.228Z,13.10
2018-05-11T21:36:24.988Z,12.67
2018-05-11T21:38:51.731Z,13.23
2018-05-11T21:41:18.477Z,14.77
2018-05-11T21:43:45.199Z,12.87
2018-05-11T21:46:11.920Z,13.70
2018-05-11T21:48:38.695Z,13.37
2018-05-11T21:51:05.456Z,14.10
2018-05-11T21:53:32.175Z,13.40
2018-05-11T21:55:58.928Z,12.73
2018-05-11T21:58:25.661Z,13.23
2018-05-11T22:00:52.397Z,12.80
2018-05-11T22:03:19.126Z,13.37
2018-05-11T22:05:45.856Z,13.87
2018-05-11T22:08:12.590Z,12.43
2018-05-11T22:10:39.325Z,12.67
2018-05-11T22:13:06.094Z,22.67
2018-05-11T22:15:32.858Z,12.33
2018-05-11T22:17:59.592Z,12.97
2018-05-11T22:20:26.362Z,13.87
2018-05-11T22:22:53.105Z,14.07
2018-05-11T22:25:19.840Z,13.70
2018-05-11T22:27:46.585Z,13.07
2018-05-11T22:30:13.324Z,13.33
2018-05-11T22:32:40.068Z,13.23
2018-05-11T22:35:06.853Z,13.87
2018-05-11T22:37:33.597Z,14.63
2018-05-11T22:40:00.322Z,14.83
2018-05-11T22:42:27.077Z,12.90
2018-05-11T22:44:53.804Z,13.07
2018-05-11T22:47:21.398Z,14.20
2018-05-11T22:49:48.121Z,13.43
2018-05-11T22:52:14.877Z,13.20
2018-05-11T22:54:41.593Z,14.13
2018-05-11T22:57:08.331Z,13.10
2018-05-11T22:59:35.049Z,13.43
2018-05-11T23:02:01.772Z,14.90
2018-05-11T23:04:28.503Z,15.97
2018-05-11T23:06:55.268Z,14.43
2018-05-11T23:09:22.001Z,13.37
2018-05-11T23:11:48.750Z,13.82
2018-05-11T23:14:15.477Z,13.73
2018-05-11T23:16:42.213Z,15.10
2018-05-11T23:19:08.971Z,14.17
2018-05-11T23:21:35.701Z,14.80
2018-05-11T23:24:02.422Z,13.93
2018-05-11T23:26:29.138Z,14.90
2018-05-11T23:28:55.859Z,15.73
2018-05-11T23:31:22.627Z,15.37
2018-05-11T23:33:49.345Z,14.43
2018-05-11T23:36:16.112Z,14.10
2018-05-11T23:38:42.832Z,12.77
2018-05-11T23:41:09.570Z,14.27
2018-05-11T23:43:36.290Z,14.17
2018-05-11T23:46:03.050Z,13.43
2018-05-11T23:48:29.782Z,14.83
2018-05-11T23:50:56.586Z,15.03
2018-05-11T23:53:23.305Z,14.30
2018-05-11T23:55:50.040Z,14.50
2018-05-11T23:58:16.769Z,15.13
